Time;durP1;ratioP1;P1;durP2;ratioP2;P2;SDS_P1;SDS_P2;PMS_P1;PMS_P2;Temp;Humidity;BMP_temperature;BMP_pressure;BME280_temperature;BME280_humidity;BME280_pressure;Samples;Min_cycle;Max_cycle;Signal;HPM_P1;HPM_P2
2024/02/23 00:01:44;;;;;;;3.10;1.98;;;9.70;86.20;;;;;;5021608;28;20083;-66
2024/02/23 00:04:11;;;;;;;4.97;2.22;;;;;;;;;;5037210;28;20026;-66
2024/02/23 00:06:38;;;;;;;2.75;1.95;;;9.70;70.40;;;;;;5041382;28;20265;-65
2024/02/23 00:09:16;;;;;;;2.55;2.10;;;9.60;70.40;;;;;;5040751;28;20097;-65
2024/02/23 00:11:44;;;;;;;2.05;1.60;;;9.70;73.40;;;;;;5041418;28;20022;-66
2024/02/23 00:14:15;;;;;;;2.30;1.80;;;9.00;70.00;;;;;;5039069;28;20029;-65
2024/02/23 00:16:41;;;;;;;5.13;2.30;;;9.70;85.00;;;;;;5040917;28;20297;-65
2024/02/23 00:19:09;;;;;;;2.70;2.20;;;9.80;79.80;;;;;;5041302;28;20025;-65
2024/02/23 00:21:35;;;;;;;1.92;1.67;;;9.70;87.70;;;;;;5041612;28;20029;-65
2024/02/23 00:24:02;;;;;;;5.35;2.15;;;;;;;;;;5041634;28;20038;-65
2024/02/23 00:26:29;;;;;;;2.38;1.98;;;;;;;;;;5041965;28;20025;-70
2024/02/23 00:28:55;;;;;;;3.03;1.95;;;9.60;71.50;;;;;;5041090;28;20029;-65
2024/02/23 00:31:22;;;;;;;2.50;1.88;;;9.80;70.30;;;;;;5042320;28;20195;-66
2024/02/23 00:33:48;;;;;;;3.15;1.77;;;;;;;;;;5051766;28;20049;-66
2024/02/23 00:36:14;;;;;;;4.70;2.10;;;9.80;87.10;;;;;;5041031;28;20037;-67
2024/02/23 00:38:40;;;;;;;3.70;2.00;;;10.00;83.50;;;;;;5033933;28;20226;-68
2024/02/23 00:41:06;;;;;;;2.63;1.95;;;;;;;;;;5022274;28;20026;-67
2024/02/23 00:43:41;;;;;;;2.50;1.85;;;9.90;69.90;;;;;;5025182;28;20030;-68
2024/02/23 00:46:08;;;;;;;4.07;1.95;;;9.80;86.80;;;;;;5024487;28;20057;-65
2024/02/23 00:48:34;;;;;;;4.13;2.33;;;9.90;69.80;;;;;;5022387;28;20081;-68
2024/02/23 00:51:02;;;;;;;2.55;2.05;;;10.00;83.90;;;;;;5024924;28;20041;-68
2024/02/23 00:53:31;;;;;;;2.38;1.80;;;10.00;69.80;;;;;;5028711;28;20022;-69
2024/02/23 00:55:57;;;;;;;3.28;2.42;;;10.10;80.00;;;;;;5028502;28;20036;-67
2024/02/23 00:58:23;;;;;;;5.03;2.30;;;10.00;75.20;;;;;;5041406;28;20049;-67
2024/02/23 01:00:49;;;;;;;3.17;2.10;;;;;;;;;;5041620;28;20214;-66
2024/02/23 01:03:16;;;;;;;2.53;2.25;;;;;;;;;;5041569;28;20021;-68
2024/02/23 01:05:42;;;;;;;4.43;2.20;;;;;;;;;;5042000;28;20036;-67
2024/02/23 01:08:09;;;;;;;3.08;1.92;;;;;;;;;;5040053;28;20029;-68
2024/02/23 01:10:34;;;;;;;2.65;1.50;;;10.00;87.00;;;;;;5040318;28;20144;-67
2024/02/23 01:13:00;;;;;;;3.85;2.20;;;10.20;86.90;;;;;;5040283;28;20029;-66
2024/02/23 01:15:27;;;;;;;2.50;2.08;;;;;;;;;;5039835;28;20119;-67
2024/02/23 01:17:53;;;;;;;3.17;1.90;;;10.10;86.80;;;;;;5039876;28;20025;-68
2024/02/23 01:20:20;;;;;;;7.40;2.17;;;10.10;69.90;;;;;;5040161;28;20070;-66
2024/02/23 01:22:46;;;;;;;3.47;2.33;;;;;;;;;;5039938;28;20013;-66
2024/02/23 01:25:12;;;;;;;3.83;2.08;;;10.20;87.00;;;;;;5039825;28;20029;-66
2024/02/23 01:27:37;;;;;;;4.07;2.45;;;10.10;73.70;;;;;;5038534;28;20036;-66
2024/02/23 01:30:04;;;;;;;2.65;2.20;;;10.20;87.30;;;;;;5031763;28;20100;-65
2024/02/23 01:32:30;;;;;;;3.95;2.42;;;;;;;;;;5036004;28;20038;-65
2024/02/23 01:34:56;;;;;;;4.10;2.45;;;;;;;;;;5039547;28;20045;-64
2024/02/23 01:37:23;;;;;;;3.30;2.30;;;;;;;;;;5039378;28;20022;-65
2024/02/23 01:39:49;;;;;;;3.60;2.67;;;;;;;;;;5039237;28;20033;-65
2024/02/23 01:42:15;;;;;;;5.30;2.13;;;;;;;;;;5039026;28;20076;-64
2024/02/23 01:44:41;;;;;;;3.65;1.98;;;;;;;;;;5039812;28;20345;-66
2024/02/23 01:47:07;;;;;;;5.60;2.40;;;10.00;91.10;;;;;;5040218;28;20029;-66
2024/02/23 01:49:34;;;;;;;4.20;2.70;;;9.90;76.40;;;;;;5040072;28;20025;-67
2024/02/23 01:52:00;;;;;;;4.75;2.50;;;9.80;77.00;;;;;;5040352;28;20030;-65
2024/02/23 01:54:29;;;;;;;3.90;2.33;;;9.60;78.10;;;;;;5039828;28;20017;-68
2024/02/23 01:56:56;;;;;;;5.30;2.40;;;9.70;79.00;;;;;;5039886;28;20041;-70
2024/02/23 01:59:23;;;;;;;3.55;2.75;;;9.70;80.10;;;;;;5040255;28;20120;-66
2024/02/23 02:01:49;;;;;;;4.35;2.97;;;;;;;;;;5040306;28;20033;-66
2024/02/23 02:04:15;;;;;;;3.70;2.53;;;;;;;;;;5039974;28;20021;-63
2024/02/23 02:06:41;;;;;;;3.85;2.88;;;9.50;83.40;;;;;;5041574;28;20077;-66
2024/02/23 02:09:07;;;;;;;3.33;2.35;;;9.60;95.20;;;;;;5042336;28;20029;-67
2024/02/23 02:11:33;;;;;;;7.88;2.47;;;;;;;;;;5040999;28;20097;-64
2024/02/23 02:13:59;;;;;;;3.53;2.88;;;;;;;;;;5041158;28;20041;-69
2024/02/23 02:16:26;;;;;;;3.88;2.85;;;;;;;;;;5040666;28;20033;-65
2024/02/23 02:18:51;;;;;;;4.60;2.60;;;9.40;97.20;;;;;;5041116;28;20036;-65
2024/02/23 02:21:17;;;;;;;5.15;2.70;;;9.20;92.00;;;;;;5040894;28;20145;-65
2024/02/23 02:23:42;;;;;;;2.97;2.42;;;9.30;97.70;;;;;;5040072;28;20036;-65
2024/02/23 02:26:08;;;;;;;4.28;2.53;;;;;;;;;;5040568;28;20045;-65
2024/02/23 02:28:34;;;;;;;3.13;2.35;;;9.30;95.80;;;;;;5040344;28;20041;-65
2024/02/23 02:31:00;;;;;;;4.43;3.00;;;;;;;;;;5038706;28;20036;-65
2024/02/23 02:33:26;;;;;;;4.53;2.90;;;9.30;99.00;;;;;;5039276;28;20075;-65
2024/02/23 02:35:51;;;;;;;6.03;2.72;;;9.10;93.90;;;;;;5039964;28;20344;-66
2024/02/23 02:38:17;;;;;;;6.25;2.95;;;9.10;99.90;;;;;;5039701;28;20022;-65
2024/02/23 02:40:43;;;;;;;3.28;2.95;;;;;;;;;;5039853;28;20360;-64
2024/02/23 02:43:09;;;;;;;5.68;2.65;;;;;;;;;;5039898;28;20036;-67
2024/02/23 02:45:35;;;;;;;5.57;3.50;;;;;;;;;;5039892;28;20025;-66
2024/02/23 02:48:02;;;;;;;5.93;3.70;;;;;;;;;;5039007;28;20337;-66
2024/02/23 02:50:29;;;;;;;4.40;2.92;;;9.30;99.90;;;;;;5042382;28;20286;-65
2024/02/23 02:52:55;;;;;;;3.15;2.85;;;;;;;;;;5043945;28;20163;-64
2024/02/23 02:55:21;;;;;;;5.20;3.22;;;;;;;;;;5043359;28;20038;-70
2024/02/23 02:57:46;;;;;;;4.57;3.03;;;9.30;99.90;;;;;;5035720;28;20036;-72
2024/02/23 03:00:13;;;;;;;3.63;2.95;;;;;;;;;;5024979;28;20022;-66
2024/02/23 03:02:39;;;;;;;7.90;3.65;;;;;;;;;;5024691;28;20017;-69
2024/02/23 03:05:05;;;;;;;5.38;3.38;;;8.50;97.30;;;;;;5024877;28;20026;-65
2024/02/23 03:07:30;;;;;;;5.25;3.35;;;9.10;99.90;;;;;;5024765;28;20037;-67
2024/02/23 03:09:57;;;;;;;8.38;3.25;;;;;;;;;;5024034;28;20056;-66
2024/02/23 03:12:22;;;;;;;4.53;3.20;;;8.80;99.90;;;;;;5024193;28;20064;-66
2024/02/23 03:14:48;;;;;;;4.72;3.20;;;8.80;99.90;;;;;;5024534;28;20034;-70
2024/02/23 03:17:14;;;;;;;6.82;2.78;;;8.60;99.90;;;;;;5024988;28;20021;-67
2024/02/23 03:19:40;;;;;;;6.20;3.30;;;8.70;99.90;;;;;;5024593;28;20132;-66
2024/02/23 03:22:05;;;;;;;5.78;3.28;;;8.60;99.90;;;;;;5024352;28;20022;-68
2024/02/23 03:24:31;;;;;;;4.78;3.45;;;8.90;99.90;;;;;;5024613;28;20041;-65
2024/02/23 03:26:57;;;;;;;5.53;3.55;;;;;;;;;;5024474;28;20048;-70
2024/02/23 03:29:24;;;;;;;4.65;3.15;;;8.70;99.90;;;;;;5024317;28;20014;-66
2024/02/23 03:31:50;;;;;;;5.20;2.72;;;8.70;99.90;;;;;;5023578;28;20046;-64
2024/02/23 03:34:17;;;;;;;3.40;2.25;;;;;;;;;;5024641;28;20097;-64
2024/02/23 03:36:43;;;;;;;5.28;2.90;;;8.80;99.90;;;;;;5025133;28;20033;-64
2024/02/23 03:39:08;;;;;;;6.03;2.88;;;8.60;99.90;;;;;;5023556;28;20295;-67
2024/02/23 03:41:34;;;;;;;6.28;4.00;;;8.60;99.90;;;;;;5025044;28;20072;-65
2024/02/23 03:44:00;;;;;;;6.05;3.50;;;;;;;;;;5025686;28;20065;-68
2024/02/23 03:46:26;;;;;;;7.00;3.50;;;;;;;;;;5025580;28;20034;-67
2024/02/23 03:48:52;;;;;;;5.07;3.00;;;8.80;99.90;;;;;;5025550;28;20017;-68
2024/02/23 03:51:18;;;;;;;6.68;3.75;;;8.70;99.90;;;;;;5025814;28;20075;-71
2024/02/23 03:53:43;;;;;;;5.03;3.20;;;8.60;99.90;;;;;;5023649;28;20089;-65
2024/02/23 03:56:09;;;;;;;4.35;3.45;;;8.70;99.90;;;;;;5022163;28;20053;-65
2024/02/23 03:58:35;;;;;;;6.13;3.80;;;;;;;;;;5022400;28;20076;-65
2024/02/23 04:01:01;;;;;;;6.70;2.80;;;8.70;99.90;;;;;;5021811;28;20368;-65
2024/02/23 04:03:27;;;;;;;5.03;3.83;;;8.80;99.90;;;;;;5022284;28;20022;-67
2024/02/23 04:05:52;;;;;;;6.03;2.78;;;8.70;99.90;;;;;;5022561;28;20359;-65
2024/02/23 04:08:18;;;;;;;4.80;3.20;;;;;;;;;;5021909;28;20026;-66
2024/02/23 04:10:44;;;;;;;4.03;3.20;;;;;;;;;;5021709;28;20040;-65
2024/02/23 04:13:13;;;;;;;6.05;3.55;;;8.80;99.90;;;;;;5021873;28;20129;-65
2024/02/23 04:15:39;;;;;;;6.25;3.40;;;8.70;99.90;;;;;;5021465;28;20042;-65
2024/02/23 04:18:05;;;;;;;5.03;3.25;;;8.90;99.90;;;;;;5021344;28;20318;-66
2024/02/23 04:20:32;;;;;;;7.70;3.10;;;;;;;;;;5021479;28;20040;-64
2024/02/23 04:22:58;;;;;;;4.00;3.03;;;;;;;;;;5021321;28;20358;-66
2024/02/23 04:25:24;;;;;;;5.82;3.15;;;;;;;;;;5021186;28;20053;-63
2024/02/23 04:27:50;;;;;;;4.75;3.42;;;;;;;;;;5021505;28;20030;-64
2024/02/23 04:30:17;;;;;;;4.32;3.47;;;;;;;;;;5021318;28;20097;-64
2024/02/23 04:32:44;;;;;;;6.32;3.05;;;8.90;99.90;;;;;;5039879;28;20076;-65
2024/02/23 04:35:09;;;;;;;4.80;3.00;;;8.80;99.90;;;;;;5021189;28;20037;-64
2024/02/23 04:37:35;;;;;;;8.05;3.40;;;8.90;99.90;;;;;;5021103;28;20686;-65
2024/02/23 04:40:01;;;;;;;5.90;3.20;;;;;;;;;;5021057;28;20022;-65
2024/02/23 04:42:30;;;;;;;4.93;2.95;;;8.90;99.90;;;;;;5021289;28;20136;-64
2024/02/23 04:44:56;;;;;;;4.22;3.05;;;;;;;;;;5021086;28;20022;-65
2024/02/23 04:47:22;;;;;;;5.72;3.38;;;;;;;;;;5021258;28;20038;-64
2024/02/23 04:49:49;;;;;;;4.80;3.10;;;8.80;99.90;;;;;;5020837;28;20302;-65
2024/02/23 04:52:14;;;;;;;2.92;2.58;;;8.90;99.90;;;;;;5020630;28;20029;-67
2024/02/23 04:54:40;;;;;;;6.03;3.25;;;;;;;;;;5020744;28;20042;-64
2024/02/23 04:57:06;;;;;;;3.28;2.47;;;8.90;99.90;;;;;;5020937;28;20093;-66
2024/02/23 04:59:32;;;;;;;3.33;2.65;;;;;;;;;;5027015;28;20062;-66
2024/02/23 05:01:58;;;;;;;5.45;2.95;;;9.30;99.90;;;;;;5040206;28;20092;-66
2024/02/23 05:04:26;;;;;;;4.35;3.35;;;;;;;;;;5040593;28;20067;-64
2024/02/23 05:06:52;;;;;;;4.70;2.70;;;;;;;;;;5040420;28;20031;-64
2024/02/23 05:09:20;;;;;;;2.88;2.28;;;8.90;99.90;;;;;;5040210;28;20030;-65
2024/02/23 05:11:47;;;;;;;4.43;3.10;;;;;;;;;;5040055;28;20036;-65
2024/02/23 05:14:13;;;;;;;3.83;2.50;;;;;;;;;;5039865;28;20094;-65
2024/02/23 05:16:38;;;;;;;3.40;1.88;;;9.50;99.90;;;;;;5040064;28;20017;-65
2024/02/23 05:19:05;;;;;;;2.70;2.00;;;;;;;;;;5039880;28;20037;-65
2024/02/23 05:21:31;;;;;;;2.53;2.33;;;;;;;;;;5039889;28;20048;-65
2024/02/23 05:23:57;;;;;;;3.75;1.88;;;;;;;;;;5040273;28;20318;-65
2024/02/23 05:26:23;;;;;;;3.95;2.20;;;;;;;;;;5040782;28;20033;-64
2024/02/23 05:28:52;;;;;;;1.92;1.48;;;8.90;99.90;;;;;;5028306;28;20044;-63
2024/02/23 05:31:17;;;;;;;2.80;1.45;;;9.30;99.90;;;;;;5029645;28;20337;-63
2024/02/23 05:33:43;;;;;;;1.27;1.00;;;9.10;99.90;;;;;;5027120;28;20061;-65
2024/02/23 05:36:09;;;;;;;1.27;0.98;;;9.10;99.90;;;;;;5039292;28;20041;-65
2024/02/23 05:38:35;;;;;;;3.10;1.67;;;;;;;;;;5039517;28;20032;-66
2024/02/23 05:41:01;;;;;;;5.75;2.25;;;;;;;;;;5039854;28;20025;-67
2024/02/23 05:43:27;;;;;;;4.38;1.48;;;8.70;99.90;;;;;;5039921;28;20067;-66
2024/02/23 05:45:54;;;;;;;3.58;1.67;;;9.00;99.90;;;;;;5071619;28;20029;-65
2024/02/23 05:48:19;;;;;;;1.42;0.85;;;8.70;99.90;;;;;;5039131;28;20025;-64
2024/02/23 05:50:45;;;;;;;0.88;0.60;;;;;;;;;;5039657;28;20088;-64
2024/02/23 05:53:11;;;;;;;0.73;0.60;;;;;;;;;;5038301;28;20048;-64
2024/02/23 05:55:37;;;;;;;0.50;0.50;;;;;;;;;;5039295;28;20037;-64
2024/02/23 05:58:05;;;;;;;2.45;0.60;;;;;;;;;;5039468;28;20040;-63
2024/02/23 06:00:31;;;;;;;1.08;0.50;;;;;;;;;;5039495;28;20082;-63
2024/02/23 06:02:58;;;;;;;1.35;0.60;;;8.30;99.90;;;;;;5039682;28;20017;-63
2024/02/23 06:05:24;;;;;;;1.75;0.90;;;8.40;99.90;;;;;;5071423;28;20287;-63
2024/02/23 06:07:50;;;;;;;0.70;0.50;;;;;;;;;;5040126;28;20052;-63
2024/02/23 06:10:16;;;;;;;0.50;0.50;;;;;;;;;;5038382;28;20393;-63
2024/02/23 06:12:42;;;;;;;2.72;0.82;;;;;;;;;;5039341;28;20021;-65
2024/02/23 06:15:08;;;;;;;0.70;0.60;;;8.50;99.90;;;;;;5039830;28;20092;-67
2024/02/23 06:17:34;;;;;;;1.55;0.88;;;;;;;;;;5039587;28;20044;-65
2024/02/23 06:20:00;;;;;;;2.33;0.70;;;8.20;99.90;;;;;;5039562;28;20309;-65
2024/02/23 06:22:26;;;;;;;1.20;0.77;;;;;;;;;;5039350;28;20101;-64
2024/02/23 06:24:52;;;;;;;2.45;0.60;;;;;;;;;;5042028;28;20210;-64
2024/02/23 06:27:19;;;;;;;0.60;0.43;;;8.30;99.90;;;;;;5043311;28;20360;-63
2024/02/23 06:29:45;;;;;;;0.60;0.50;;;;;;;;;;5043481;28;20096;-63
2024/02/23 06:32:11;;;;;;;2.20;0.70;;;8.40;99.90;;;;;;5043115;28;20481;-68
2024/02/23 06:34:37;;;;;;;0.70;0.57;;;;;;;;;;5042840;28;20053;-64
2024/02/23 06:37:04;;;;;;;0.47;0.43;;;8.30;99.90;;;;;;5042886;28;20033;-65
2024/02/23 06:39:30;;;;;;;0.77;0.68;;;;;;;;;;5042900;28;20025;-64
2024/02/23 06:41:57;;;;;;;1.02;0.40;;;;;;;;;;5042201;28;20029;-65
2024/02/23 06:44:24;;;;;;;2.03;0.50;;;;;;;;;;5041698;28;20021;-64
2024/02/23 06:46:50;;;;;;;0.95;0.57;;;;;;;;;;5042549;28;20040;-65
2024/02/23 06:49:16;;;;;;;0.50;0.40;;;;;;;;;;5042347;28;20500;-64
2024/02/23 06:51:42;;;;;;;0.60;0.60;;;;;;;;;;5042545;28;20065;-64
2024/02/23 06:54:08;;;;;;;0.60;0.50;;;8.40;99.90;;;;;;5042496;28;20427;-64
2024/02/23 06:56:34;;;;;;;0.50;0.50;;;8.30;99.90;;;;;;5043000;28;20032;-64
2024/02/23 06:59:00;;;;;;;0.60;0.60;;;;;;;;;;5043282;28;20033;-65
2024/02/23 07:01:27;;;;;;;0.57;0.40;;;;;;;;;;5041288;28;20049;-64
2024/02/23 07:03:53;;;;;;;2.35;0.75;;;8.30;99.90;;;;;;5042648;28;20063;-63
2024/02/23 07:06:19;;;;;;;1.48;0.73;;;8.10;99.90;;;;;;5042944;28;20025;-64
2024/02/23 07:08:46;;;;;;;1.38;0.60;;;;;;;;;;5042836;28;20041;-65
2024/02/23 07:11:12;;;;;;;0.90;0.70;;;;;;;;;;5042798;28;20029;-63
2024/02/23 07:13:43;;;;;;;0.95;0.70;;;8.40;99.90;;;;;;5042584;28;20428;-64
2024/02/23 07:16:08;;;;;;;2.28;0.73;;;8.60;99.90;;;;;;5042586;28;20047;-64
2024/02/23 07:18:34;;;;;;;1.42;0.98;;;8.20;99.90;;;;;;5041031;28;20025;-64
2024/02/23 07:21:00;;;;;;;3.95;1.35;;;;;;;;;;5029079;28;20019;-66
2024/02/23 07:23:26;;;;;;;1.55;0.80;;;;;;;;;;5044950;28;20028;-64
2024/02/23 07:25:52;;;;;;;2.45;1.20;;;;;;;;;;5042460;28;20029;-64
2024/02/23 07:28:19;;;;;;;1.10;0.93;;;;;;;;;;5042313;28;20025;-64
2024/02/23 07:30:46;;;;;;;1.80;1.05;;;8.60;99.90;;;;;;5042129;28;20028;-65
2024/02/23 07:33:12;;;;;;;2.33;1.02;;;;;;;;;;5041935;28;20364;-66
2024/02/23 07:35:38;;;;;;;1.27;0.77;;;;;;;;;;5041425;28;20326;-67
2024/02/23 07:38:05;;;;;;;1.73;0.93;;;8.70;99.90;;;;;;5041921;28;20202;-66
2024/02/23 07:40:34;;;;;;;1.70;0.80;;;;;;;;;;5042269;28;20076;-67
2024/02/23 07:42:59;;;;;;;2.05;1.08;;;8.60;99.90;;;;;;5040821;28;20032;-67
2024/02/23 07:45:28;;;;;;;2.35;1.55;;;;;;;;;;5042214;28;20249;-67
2024/02/23 07:47:54;;;;;;;1.40;1.20;;;;;;;;;;5040760;28;20092;-66
2024/02/23 07:50:20;;;;;;;2.80;2.22;;;;;;;;;;5042331;28;20028;-66
2024/02/23 07:52:46;;;;;;;2.22;1.80;;;8.40;99.90;;;;;;5042167;28;20328;-66
2024/02/23 07:55:12;;;;;;;3.38;1.75;;;;;;;;;;5041961;28;20041;-63
2024/02/23 07:57:39;;;;;;;2.40;1.80;;;;;;;;;;5041424;28;20082;-66
2024/02/23 08:00:07;;;;;;;7.38;3.13;;;8.50;99.90;;;;;;5039631;28;20023;-65
2024/02/23 08:02:32;;;;;;;4.97;3.03;;;8.90;99.90;;;;;;5040508;28;20018;-63
2024/02/23 08:05:00;;;;;;;8.75;4.60;;;8.50;99.90;;;;;;5040527;28;20317;-67
2024/02/23 08:07:28;;;;;;;11.13;5.80;;;;;;;;;;5040458;28;20048;-63
2024/02/23 08:09:54;;;;;;;9.68;4.68;;;;;;;;;;5042152;28;20102;-63
2024/02/23 08:12:19;;;;;;;7.15;3.80;;;8.50;99.90;;;;;;5042081;28;20021;-63
2024/02/23 08:14:47;;;;;;;2.75;1.77;;;;;;;;;;5042200;28;20218;-68
2024/02/23 08:17:13;;;;;;;3.35;2.60;;;8.80;99.90;;;;;;5041210;28;20056;-64
2024/02/23 08:19:38;;;;;;;3.17;2.20;;;8.60;99.90;;;;;;5041962;28;20116;-64
2024/02/23 08:22:04;;;;;;;5.15;2.30;;;;;;;;;;5041480;28;20091;-67
2024/02/23 08:24:31;;;;;;;4.15;1.95;;;8.90;99.90;;;;;;5041253;28;20037;-63
2024/02/23 08:26:57;;;;;;;3.88;2.03;;;;;;;;;;5041007;28;20306;-63
2024/02/23 08:29:22;;;;;;;4.15;2.10;;;8.90;99.90;;;;;;5041207;28;20097;-63
2024/02/23 08:31:50;;;;;;;3.78;2.00;;;;;;;;;;5040991;28;20025;-65
2024/02/23 08:34:17;;;;;;;3.05;1.80;;;;;;;;;;5040797;28;20087;-63
2024/02/23 08:36:43;;;;;;;3.40;1.75;;;8.90;99.90;;;;;;5041173;28;20056;-63
2024/02/23 08:39:08;;;;;;;2.45;1.73;;;9.10;99.90;;;;;;5040958;28;20187;-63
2024/02/23 08:41:35;;;;;;;6.20;4.05;;;;;;;;;;5041053;28;20263;-63
2024/02/23 08:44:00;;;;;;;13.32;7.03;;;8.90;99.90;;;;;;5040756;28;20313;-67
2024/02/23 08:46:26;;;;;;;10.02;4.57;;;;;;;;;;5040968;28;20314;-63
2024/02/23 08:48:52;;;;;;;5.75;3.65;;;9.30;99.90;;;;;;5041133;28;20021;-63
2024/02/23 08:51:18;;;;;;;5.45;3.47;;;;;;;;;;5041188;28;20040;-63
2024/02/23 08:53:44;;;;;;;5.07;2.58;;;9.30;99.90;;;;;;5040670;28;20029;-63
2024/02/23 08:56:11;;;;;;;9.65;4.75;;;;;;;;;;5040566;28;20041;-63
2024/02/23 08:58:36;;;;;;;3.70;2.65;;;9.60;99.90;;;;;;5040463;28;20304;-62
2024/02/23 09:01:04;;;;;;;5.03;3.13;;;;;;;;;;5039533;28;20309;-63
2024/02/23 09:03:31;;;;;;;3.05;2.20;;;9.50;99.90;;;;;;5040550;28;20052;-66
2024/02/23 09:05:57;;;;;;;4.70;2.25;;;;;;;;;;5040176;28;20357;-63
2024/02/23 09:08:23;;;;;;;3.85;2.28;;;9.60;99.90;;;;;;5040199;28;20025;-63
2024/02/23 09:10:49;;;;;;;4.07;2.42;;;9.50;99.90;;;;;;5035290;28;20037;-63
2024/02/23 09:13:15;;;;;;;4.03;2.42;;;9.70;99.90;;;;;;5038747;28;20238;-62
2024/02/23 09:15:42;;;;;;;2.58;1.90;;;;;;;;;;5040394;28;20334;-63
2024/02/23 09:18:08;;;;;;;3.83;1.70;;;;;;;;;;5038860;28;20039;-63
2024/02/23 09:20:34;;;;;;;2.85;1.88;;;;;;;;;;5040086;28;20025;-65
2024/02/23 09:23:00;;;;;;;2.78;1.60;;;10.00;99.90;;;;;;5040112;28;20037;-65
2024/02/23 09:25:26;;;;;;;2.60;1.63;;;;;;;;;;5040161;28;20044;-63
2024/02/23 09:27:52;;;;;;;3.13;1.45;;;;;;;;;;5040113;28;20209;-62
2024/02/23 09:30:19;;;;;;;2.05;1.42;;;9.90;99.90;;;;;;5038839;28;20321;-63
2024/02/23 09:32:45;;;;;;;2.13;1.35;;;9.80;99.90;;;;;;5035724;28;20294;-63
2024/02/23 09:35:10;;;;;;;3.50;1.60;;;9.80;99.90;;;;;;5040459;28;20091;-63
2024/02/23 09:37:36;;;;;;;3.97;1.67;;;;;;;;;;5040278;28;20021;-63
2024/02/23 09:40:02;;;;;;;3.08;1.85;;;10.00;99.90;;;;;;5039896;28;20021;-63
2024/02/23 09:42:32;;;;;;;2.78;2.47;;;10.00;99.90;;;;;;5039521;28;20330;-62
2024/02/23 09:44:59;;;;;;;3.17;1.90;;;10.00;99.90;;;;;;5037073;28;20025;-62
2024/02/23 09:47:29;;;;;;;5.72;2.53;;;;;;;;;;5028825;28;20018;-63
2024/02/23 09:49:55;;;;;;;2.15;1.30;;;10.20;99.90;;;;;;5018230;28;20029;-63
2024/02/23 09:52:22;;;;;;;2.00;1.35;;;10.20;99.90;;;;;;5020073;28;20349;-62
2024/02/23 09:54:48;;;;;;;5.13;2.20;;;10.10;99.90;;;;;;5019950;28;20040;-63
2024/02/23 09:57:15;;;;;;;2.50;2.00;;;10.10;99.90;;;;;;5020258;28;20026;-63
2024/02/23 09:59:41;;;;;;;1.67;1.58;;;;;;;;;;5019261;28;20030;-63
2024/02/23 10:02:11;;;;;;;3.83;2.22;;;10.20;99.90;;;;;;5020196;28;20025;-63
2024/02/23 10:04:39;;;;;;;4.68;2.75;;;;;;;;;;5019903;28;20025;-65
2024/02/23 10:07:05;;;;;;;4.20;2.50;;;;;;;;;;5020035;28;20056;-65
2024/02/23 10:09:30;;;;;;;5.13;2.80;;;10.30;99.90;;;;;;5020239;28;20434;-66
2024/02/23 10:11:56;;;;;;;5.53;2.67;;;10.50;99.90;;;;;;5019964;28;20337;-62
2024/02/23 10:14:22;;;;;;;5.70;3.17;;;11.00;99.90;;;;;;5019726;28;20026;-63
2024/02/23 10:16:53;;;;;;;3.45;2.80;;;10.60;99.90;;;;;;5019978;28;20025;-63
2024/02/23 10:19:20;;;;;;;2.40;1.65;;;11.10;99.90;;;;;;5019940;28;20018;-64
2024/02/23 10:21:46;;;;;;;1.80;1.50;;;11.10;99.90;;;;;;5019579;28;20040;-63
2024/02/23 10:24:12;;;;;;;3.20;1.80;;;;;;;;;;5018530;28;20372;-63
2024/02/23 10:26:39;;;;;;;1.60;1.25;;;11.00;99.50;;;;;;5019653;28;20105;-63
2024/02/23 10:29:05;;;;;;;2.00;1.65;;;;;;;;;;5019855;28;20068;-64
2024/02/23 10:31:37;;;;;;;1.23;1.05;;;11.00;98.80;;;;;;5019701;28;20026;-64
2024/02/23 10:34:14;;;;;;;2.08;1.52;;;11.00;98.50;;;;;;5021819;28;20250;-64
2024/02/23 10:36:42;;;;;;;2.35;1.80;;;11.00;99.90;;;;;;5039702;28;20037;-64
2024/02/23 10:39:12;;;;;;;3.10;2.42;;;11.00;99.20;;;;;;5040096;28;20029;-66
2024/02/23 10:41:44;;;;;;;3.35;2.67;;;11.00;99.90;;;;;;5040162;28;20064;-64
2024/02/23 10:44:16;;;;;;;3.20;2.35;;;11.10;99.90;;;;;;5039457;28;20079;-64
2024/02/23 10:46:42;;;;;;;3.65;2.30;;;10.90;99.90;;;;;;5039815;28;20333;-65
2024/02/23 10:49:08;;;;;;;1.90;1.65;;;;;;;;;;5040969;28;20034;-69
2024/02/23 10:51:35;;;;;;;2.80;1.90;;;11.00;99.90;;;;;;5040842;28;20026;-72
2024/02/23 10:54:02;;;;;;;3.58;2.35;;;10.90;98.80;;;;;;5039217;28;20045;-65
2024/02/23 10:56:28;;;;;;;4.50;2.28;;;10.70;99.90;;;;;;5040473;28;20045;-65
2024/02/23 10:58:55;;;;;;;2.90;2.08;;;;;;;;;;5040275;28;20241;-64
2024/02/23 11:01:21;;;;;;;4.75;2.20;;;10.70;99.90;;;;;;5040291;28;20021;-66
2024/02/23 11:03:50;;;;;;;3.10;1.95;;;10.90;99.90;;;;;;5040279;28;20029;-64
2024/02/23 11:06:20;;;;;;;2.42;1.42;;;10.70;99.90;;;;;;5040583;28;20045;-65
2024/02/23 11:08:47;;;;;;;3.38;1.75;;;10.70;99.90;;;;;;5040555;28;20033;-63
2024/02/23 11:11:16;;;;;;;4.22;1.52;;;11.10;99.90;;;;;;5042522;28;20030;-64
2024/02/23 11:13:43;;;;;;;2.22;1.63;;;11.00;98.40;;;;;;5043290;28;20341;-68
2024/02/23 11:16:09;;;;;;;1.95;1.45;;;11.00;99.90;;;;;;5043687;28;20116;-64
2024/02/23 11:18:36;;;;;;;2.50;2.05;;;11.10;97.50;;;;;;5043805;28;20038;-65
2024/02/23 11:21:06;;;;;;;4.28;2.95;;;11.20;97.20;;;;;;5042957;28;20265;-66
2024/02/23 11:23:42;;;;;;;3.17;2.17;;;11.40;99.90;;;;;;5043300;28;20029;-65
2024/02/23 11:26:10;;;;;;;2.55;1.95;;;11.40;99.90;;;;;;5043436;28;20026;-66
2024/02/23 11:28:49;;;;;;;4.50;2.97;;;11.40;99.90;;;;;;5042856;28;20029;-64
2024/02/23 11:31:19;;;;;;;3.47;2.30;;;11.80;99.90;;;;;;5042614;28;20017;-64
2024/02/23 11:33:53;;;;;;;4.00;2.95;;;11.40;99.90;;;;;;5042258;28;20045;-64
2024/02/23 11:36:30;;;;;;;3.40;2.10;;;;;;;;;;5042146;28;20045;-63
2024/02/23 11:38:58;;;;;;;2.22;1.90;;;11.70;99.90;;;;;;5042192;28;20085;-64
2024/02/23 11:41:24;;;;;;;2.83;1.95;;;11.60;99.90;;;;;;5042272;28;20099;-64
2024/02/23 11:43:56;;;;;;;2.67;1.45;;;11.70;99.90;;;;;;5042199;28;20029;-64
2024/02/23 11:46:22;;;;;;;3.10;1.95;;;11.90;99.60;;;;;;5041801;28;20029;-63
2024/02/23 11:48:55;;;;;;;2.95;1.95;;;12.00;99.40;;;;;;5042172;28;20032;-64
2024/02/23 11:51:23;;;;;;;2.80;1.90;;;12.20;99.20;;;;;;5042075;28;20035;-63
2024/02/23 11:53:49;;;;;;;3.35;1.80;;;12.10;98.20;;;;;;5041790;28;20079;-65
2024/02/23 11:56:15;;;;;;;3.10;1.98;;;12.50;97.10;;;;;;5041856;28;20064;-64
2024/02/23 11:58:41;;;;;;;2.55;1.88;;;12.30;97.10;;;;;;5041640;28;20084;-64
2024/02/23 12:01:07;;;;;;;1.98;1.63;;;12.40;96.90;;;;;;5041703;28;20033;-68
2024/02/23 12:03:34;;;;;;;1.73;1.40;;;12.70;96.20;;;;;;5041699;28;20101;-64
2024/02/23 12:06:03;;;;;;;2.60;1.30;;;12.70;95.10;;;;;;5039756;28;20018;-64
2024/02/23 12:08:30;;;;;;;;;;;12.70;86.90;;;;;;5042086;28;20447;-64
2024/02/23 12:10:56;;;;;;;2.22;1.52;;;12.80;94.50;;;;;;5041675;28;19909;-63
2024/02/23 12:13:22;;;;;;;1.60;1.27;;;12.50;93.10;;;;;;5041498;28;20051;-65
2024/02/23 12:15:52;;;;;;;3.05;1.63;;;12.60;89.50;;;;;;5041292;28;20067;-63
2024/02/23 12:18:23;;;;;;;1.98;1.52;;;12.60;94.00;;;;;;5041160;28;20300;-68
2024/02/23 12:20:49;;;;;;;2.65;1.80;;;;;;;;;;5041106;28;20325;-66
2024/02/23 12:23:15;;;;;;;3.80;2.45;;;12.00;90.60;;;;;;5023454;28;20320;-65
2024/02/23 12:25:40;;;;;;;3.15;1.33;;;11.90;95.90;;;;;;5020412;28;20029;-67
2024/02/23 12:28:06;;;;;;;4.20;2.20;;;11.50;96.70;;;;;;5036469;28;20332;-65
2024/02/23 12:30:33;;;;;;;1.73;1.50;;;11.60;94.40;;;;;;5021060;28;20056;-65
2024/02/23 12:33:08;;;;;;;2.78;2.00;;;11.30;97.00;;;;;;5021166;28;20028;-68
2024/02/23 12:35:35;;;;;;;3.55;2.30;;;11.40;90.30;;;;;;5020907;28;20080;-66
2024/02/23 12:38:01;;;;;;;2.90;2.20;;;11.30;93.30;;;;;;5036332;28;20061;-64
2024/02/23 12:40:27;;;;;;;2.30;1.70;;;11.50;97.60;;;;;;5021076;28;20066;-63
2024/02/23 12:42:53;;;;;;;2.60;1.70;;;11.30;97.70;;;;;;5022731;28;20020;-64
2024/02/23 12:45:19;;;;;;;4.88;2.03;;;11.30;98.30;;;;;;5038536;28;20264;-63
2024/02/23 12:47:45;;;;;;;3.45;1.98;;;11.10;98.50;;;;;;5040830;28;20069;-64
2024/02/23 12:50:11;;;;;;;2.03;1.83;;;;;;;;;;5040790;28;20041;-64
2024/02/23 12:52:37;;;;;;;2.80;1.88;;;11.20;99.00;;;;;;5040976;28;20085;-65
2024/02/23 12:55:03;;;;;;;1.75;1.50;;;11.10;98.90;;;;;;5040865;28;20094;-68
2024/02/23 12:57:28;;;;;;;4.13;1.80;;;11.00;98.90;;;;;;5041113;28;20026;-63
2024/02/23 12:59:56;;;;;;;2.80;1.70;;;10.90;98.80;;;;;;5040762;28;20060;-68
2024/02/23 13:02:22;;;;;;;3.38;1.70;;;;;;;;;;5041394;28;20037;-63
2024/02/23 13:04:50;;;;;;;2.03;1.70;;;11.00;99.00;;;;;;5040240;28;20104;-64
2024/02/23 13:07:17;;;;;;;2.75;1.90;;;;;;;;;;5041057;28;20321;-64
2024/02/23 13:09:44;;;;;;;4.38;2.33;;;11.00;91.80;;;;;;5041253;28;20033;-64
2024/02/23 13:12:13;;;;;;;3.80;2.85;;;10.90;99.00;;;;;;5041135;28;20029;-64
2024/02/23 13:14:39;;;;;;;2.67;2.00;;;11.00;99.40;;;;;;5041095;28;20195;-66
2024/02/23 13:17:04;;;;;;;2.50;2.00;;;11.10;99.30;;;;;;5040863;28;20036;-64
2024/02/23 13:19:30;;;;;;;5.20;2.15;;;11.00;99.70;;;;;;5041091;28;20013;-69
2024/02/23 13:21:56;;;;;;;2.80;1.92;;;10.80;99.80;;;;;;5041463;28;20111;-73
2024/02/23 13:24:22;;;;;;;3.70;2.10;;;;;;;;;;5041604;28;20022;-64
2024/02/23 13:26:48;;;;;;;3.65;1.90;;;10.70;99.90;;;;;;5042966;28;20021;-68
2024/02/23 13:29:13;;;;;;;3.75;1.80;;;11.00;95.20;;;;;;5042319;28;20327;-64